sensor_id;sensor_type;location;lat;lon;timestamp;P1;durP1;ratioP1;P2;durP2;ratioP2
40537;SDS011;27925;41.874;12.526;2023-04-03T02:12:38;4.35;;;1.60;;
40537;SDS011;27925;41.874;12.526;2023-04-03T02:15:03;5.28;;;1.48;;
40537;SDS011;27925;41.874;12.526;2023-04-03T02:17:30;5.60;;;1.40;;
40537;SDS011;27925;41.874;12.526;2023-04-03T02:19:55;3.88;;;1.45;;
40537;SDS011;27925;41.874;12.526;2023-04-03T02:22:21;4.22;;;1.55;;
40537;SDS011;27925;41.874;12.526;2023-04-03T02:24:47;4.35;;;1.60;;
40537;SDS011;27925;41.874;12.526;2023-04-03T02:27:12;2.75;;;1.50;;
40537;SDS011;27925;41.874;12.526;2023-04-03T02:29:38;3.97;;;1.70;;
40537;SDS011;27925;41.874;12.526;2023-04-03T02:32:04;3.58;;;1.40;;
40537;SDS011;27925;41.874;12.526;2023-04-03T02:34:30;3.85;;;1.48;;
40537;SDS011;27925;41.874;12.526;2023-04-03T02:36:56;4.57;;;1.50;;
40537;SDS011;27925;41.874;12.526;2023-04-03T02:39:21;5.22;;;1.60;;
40537;SDS011;27925;41.874;12.526;2023-04-03T02:41:47;3.95;;;1.40;;
40537;SDS011;27925;41.874;12.526;2023-04-03T02:44:13;5.32;;;1.60;;
40537;SDS011;27925;41.874;12.526;2023-04-03T02:46:39;6.47;;;1.70;;
40537;SDS011;27925;41.874;12.526;2023-04-03T02:49:04;2.78;;;1.30;;
40537;SDS011;27925;41.874;12.526;2023-04-03T02:51:30;3.25;;;1.40;;
40537;SDS011;27925;41.874;12.526;2023-04-03T02:53:56;3.78;;;1.40;;
40537;SDS011;27925;41.874;12.526;2023-04-03T02:56:22;4.68;;;1.60;;
40537;SDS011;27925;41.874;12.526;2023-04-03T02:58:48;4.25;;;1.40;;
40537;SDS011;27925;41.874;12.526;2023-04-03T03:01:14;4.15;;;1.38;;
40537;SDS011;27925;41.874;12.526;2023-04-03T03:03:40;4.38;;;1.60;;
40537;SDS011;27925;41.874;12.526;2023-04-03T03:06:07;3.13;;;1.33;;
40537;SDS011;27925;41.874;12.526;2023-04-03T03:08:35;2.72;;;1.52;;
40537;SDS011;27925;41.874;12.526;2023-04-03T03:11:01;3.60;;;1.55;;
40537;SDS011;27925;41.874;12.526;2023-04-03T03:13:27;4.57;;;1.70;;
40537;SDS011;27925;41.874;12.526;2023-04-03T03:15:53;3.78;;;1.60;;
40537;SDS011;27925;41.874;12.526;2023-04-03T03:18:18;4.43;;;1.40;;
40537;SDS011;27925;41.874;12.526;2023-04-03T03:20:44;4.43;;;1.42;;
40537;SDS011;27925;41.874;12.526;2023-04-03T03:23:10;5.28;;;2.08;;
40537;SDS011;27925;41.874;12.526;2023-04-03T03:25:39;3.83;;;1.73;;
40537;SDS011;27925;41.874;12.526;2023-04-03T03:28:06;3.22;;;1.20;;
40537;SDS011;27925;41.874;12.526;2023-04-03T03:30:32;4.57;;;1.33;;
40537;SDS011;27925;41.874;12.526;2023-04-03T03:32:58;3.88;;;1.20;;
40537;SDS011;27925;41.874;12.526;2023-04-03T03:35:24;2.40;;;1.08;;
40537;SDS011;27925;41.874;12.526;2023-04-03T03:37:50;1.42;;;1.00;;
40537;SDS011;27925;41.874;12.526;2023-04-03T03:40:15;2.28;;;1.08;;
40537;SDS011;27925;41.874;12.526;2023-04-03T03:42:41;2.90;;;1.30;;
40537;SDS011;27925;41.874;12.526;2023-04-03T03:45:07;4.22;;;1.42;;
40537;SDS011;27925;41.874;12.526;2023-04-03T03:47:33;4.07;;;1.33;;
40537;SDS011;27925;41.874;12.526;2023-04-03T03:49:59;5.15;;;1.40;;
40537;SDS011;27925;41.874;12.526;2023-04-03T03:52:25;2.80;;;1.02;;
40537;SDS011;27925;41.874;12.526;2023-04-03T03:54:51;4.30;;;1.70;;
40537;SDS011;27925;41.874;12.526;2023-04-03T03:57:16;2.42;;;1.30;;
40537;SDS011;27925;41.874;12.526;2023-04-03T03:59:42;3.45;;;1.30;;
40537;SDS011;27925;41.874;12.526;2023-04-03T04:02:09;4.68;;;1.85;;
40537;SDS011;27925;41.874;12.526;2023-04-03T04:04:36;3.92;;;1.38;;
40537;SDS011;27925;41.874;12.526;2023-04-03T04:07:02;4.47;;;1.30;;
40537;SDS011;27925;41.874;12.526;2023-04-03T04:09:28;3.13;;;1.20;;
40537;SDS011;27925;41.874;12.526;2023-04-03T04:11:53;3.13;;;1.38;;
40537;SDS011;27925;41.874;12.526;2023-04-03T04:14:19;5.28;;;1.48;;
40537;SDS011;27925;41.874;12.526;2023-04-03T04:16:45;1.90;;;1.00;;
40537;SDS011;27925;41.874;12.526;2023-04-03T04:19:12;2.03;;;1.20;;
40537;SDS011;27925;41.874;12.526;2023-04-03T04:21:38;2.67;;;1.30;;
40537;SDS011;27925;41.874;12.526;2023-04-03T04:24:04;5.40;;;1.33;;
40537;SDS011;27925;41.874;12.526;2023-04-03T04:26:31;2.67;;;1.15;;
40537;SDS011;27925;41.874;12.526;2023-04-03T04:28:56;2.95;;;1.20;;
40537;SDS011;27925;41.874;12.526;2023-04-03T04:31:22;2.70;;;1.20;;
40537;SDS011;27925;41.874;12.526;2023-04-03T04:33:48;3.85;;;1.10;;
40537;SDS011;27925;41.874;12.526;2023-04-03T04:36:13;4.15;;;1.17;;
40537;SDS011;27925;41.874;12.526;2023-04-03T04:38:40;3.35;;;1.40;;
40537;SDS011;27925;41.874;12.526;2023-04-03T04:41:06;4.70;;;1.30;;
40537;SDS011;27925;41.874;12.526;2023-04-03T04:43:32;2.33;;;1.30;;
40537;SDS011;27925;41.874;12.526;2023-04-03T04:46:04;2.35;;;1.25;;
40537;SDS011;27925;41.874;12.526;2023-04-03T04:48:32;3.95;;;1.20;;
40537;SDS011;27925;41.874;12.526;2023-04-03T04:50:58;2.95;;;1.30;;
40537;SDS011;27925;41.874;12.526;2023-04-03T04:53:24;3.67;;;1.40;;
40537;SDS011;27925;41.874;12.526;2023-04-03T04:55:50;5.03;;;1.60;;
40537;SDS011;27925;41.874;12.526;2023-04-03T04:58:16;4.45;;;1.20;;
40537;SDS011;27925;41.874;12.526;2023-04-03T05:00:42;8.50;;;2.33;;
40537;SDS011;27925;41.874;12.526;2023-04-03T05:03:08;4.82;;;1.50;;
40537;SDS011;27925;41.874;12.526;2023-04-03T05:05:34;5.30;;;1.70;;
40537;SDS011;27925;41.874;12.526;2023-04-03T05:08:00;2.63;;;1.30;;
40537;SDS011;27925;41.874;12.526;2023-04-03T05:10:27;4.00;;;1.70;;
40537;SDS011;27925;41.874;12.526;2023-04-03T05:12:53;3.97;;;1.40;;
40537;SDS011;27925;41.874;12.526;2023-04-03T05:15:18;5.13;;;1.40;;
40537;SDS011;27925;41.874;12.526;2023-04-03T05:17:45;4.50;;;1.73;;
40537;SDS011;27925;41.874;12.526;2023-04-03T05:20:10;1.75;;;1.25;;
40537;SDS011;27925;41.874;12.526;2023-04-03T05:22:36;4.90;;;1.58;;
40537;SDS011;27925;41.874;12.526;2023-04-03T05:25:02;2.25;;;1.20;;
40537;SDS011;27925;41.874;12.526;2023-04-03T05:27:29;4.38;;;1.35;;
40537;SDS011;27925;41.874;12.526;2023-04-03T05:29:54;4.40;;;1.55;;
40537;SDS011;27925;41.874;12.526;2023-04-03T05:32:24;5.28;;;1.75;;
40537;SDS011;27925;41.874;12.526;2023-04-03T05:34:52;2.50;;;1.35;;
40537;SDS011;27925;41.874;12.526;2023-04-03T05:37:18;4.68;;;1.70;;
40537;SDS011;27925;41.874;12.526;2023-04-03T05:39:44;6.65;;;1.75;;
40537;SDS011;27925;41.874;12.526;2023-04-03T05:42:10;4.85;;;1.42;;
40537;SDS011;27925;41.874;12.526;2023-04-03T05:44:36;3.80;;;1.50;;
40537;SDS011;27925;41.874;12.526;2023-04-03T05:47:03;5.55;;;1.70;;
40537;SDS011;27925;41.874;12.526;2023-04-03T05:49:29;4.72;;;1.33;;
40537;SDS011;27925;41.874;12.526;2023-04-03T05:51:55;3.70;;;1.25;;
40537;SDS011;27925;41.874;12.526;2023-04-03T05:54:24;7.65;;;1.73;;
40537;SDS011;27925;41.874;12.526;2023-04-03T05:56:51;3.88;;;1.73;;
40537;SDS011;27925;41.874;12.526;2023-04-03T05:59:18;7.03;;;1.80;;
40537;SDS011;27925;41.874;12.526;2023-04-03T06:01:44;5.20;;;2.00;;
40537;SDS011;27925;41.874;12.526;2023-04-03T06:04:10;7.15;;;1.92;;
40537;SDS011;27925;41.874;12.526;2023-04-03T06:06:47;2.97;;;1.60;;
40537;SDS011;27925;41.874;12.526;2023-04-03T06:09:35;6.07;;;1.73;;
40537;SDS011;27925;41.874;12.526;2023-04-03T06:12:00;3.90;;;1.30;;
40537;SDS011;27925;41.874;12.526;2023-04-03T06:14:27;3.80;;;1.45;;
40537;SDS011;27925;41.874;12.526;2023-04-03T06:16:53;6.20;;;1.67;;
40537;SDS011;27925;41.874;12.526;2023-04-03T06:19:19;5.47;;;1.80;;
40537;SDS011;27925;41.874;12.526;2023-04-03T06:21:46;6.13;;;1.33;;
40537;SDS011;27925;41.874;12.526;2023-04-03T06:24:14;5.50;;;1.55;;
40537;SDS011;27925;41.874;12.526;2023-04-03T06:26:41;5.65;;;1.80;;
40537;SDS011;27925;41.874;12.526;2023-04-03T06:29:07;5.28;;;1.60;;
40537;SDS011;27925;41.874;12.526;2023-04-03T06:31:33;7.05;;;1.80;;
40537;SDS011;27925;41.874;12.526;2023-04-03T06:34:01;4.10;;;1.45;;
40537;SDS011;27925;41.874;12.526;2023-04-03T06:36:27;6.20;;;1.50;;
40537;SDS011;27925;41.874;12.526;2023-04-03T06:38:53;9.65;;;1.60;;
40537;SDS011;27925;41.874;12.526;2023-04-03T06:41:19;6.03;;;1.83;;
40537;SDS011;27925;41.874;12.526;2023-04-03T06:43:46;6.90;;;1.75;;
40537;SDS011;27925;41.874;12.526;2023-04-03T06:46:20;5.28;;;1.90;;
40537;SDS011;27925;41.874;12.526;2023-04-03T06:48:47;5.13;;;1.73;;
40537;SDS011;27925;41.874;12.526;2023-04-03T06:51:17;5.68;;;2.00;;
40537;SDS011;27925;41.874;12.526;2023-04-03T06:53:44;10.63;;;2.70;;
40537;SDS011;27925;41.874;12.526;2023-04-03T06:56:10;11.90;;;1.90;;
40537;SDS011;27925;41.874;12.526;2023-04-03T06:58:36;9.18;;;2.03;;
40537;SDS011;27925;41.874;12.526;2023-04-03T07:01:02;5.43;;;1.90;;
40537;SDS011;27925;41.874;12.526;2023-04-03T07:03:28;6.75;;;1.95;;
40537;SDS011;27925;41.874;12.526;2023-04-03T07:05:54;6.13;;;1.67;;
40537;SDS011;27925;41.874;12.526;2023-04-03T07:08:20;9.25;;;1.83;;
40537;SDS011;27925;41.874;12.526;2023-04-03T07:10:47;4.22;;;1.83;;
40537;SDS011;27925;41.874;12.526;2023-04-03T07:13:13;5.05;;;1.60;;
40537;SDS011;27925;41.874;12.526;2023-04-03T07:15:39;4.93;;;1.67;;
40537;SDS011;27925;41.874;12.526;2023-04-03T07:18:05;6.53;;;1.48;;
40537;SDS011;27925;41.874;12.526;2023-04-03T07:20:31;4.13;;;1.60;;
40537;SDS011;27925;41.874;12.526;2023-04-03T07:22:56;5.43;;;1.88;;
40537;SDS011;27925;41.874;12.526;2023-04-03T07:25:22;4.40;;;1.20;;
40537;SDS011;27925;41.874;12.526;2023-04-03T07:27:48;5.25;;;1.30;;
40537;SDS011;27925;41.874;12.526;2023-04-03T07:30:14;1.77;;;1.00;;
40537;SDS011;27925;41.874;12.526;2023-04-03T07:32:40;4.20;;;1.30;;
40537;SDS011;27925;41.874;12.526;2023-04-03T07:35:06;6.68;;;1.45;;
40537;SDS011;27925;41.874;12.526;2023-04-03T07:37:32;2.78;;;1.10;;
40537;SDS011;27925;41.874;12.526;2023-04-03T07:39:58;4.43;;;1.50;;
40537;SDS011;27925;41.874;12.526;2023-04-03T07:42:24;6.65;;;1.38;;
40537;SDS011;27925;41.874;12.526;2023-04-03T07:44:52;7.82;;;1.50;;
40537;SDS011;27925;41.874;12.526;2023-04-03T07:47:18;4.15;;;1.50;;
40537;SDS011;27925;41.874;12.526;2023-04-03T07:49:46;5.53;;;1.50;;
40537;SDS011;27925;41.874;12.526;2023-04-03T07:52:12;5.47;;;1.30;;
40537;SDS011;27925;41.874;12.526;2023-04-03T07:54:39;3.40;;;1.13;;
40537;SDS011;27925;41.874;12.526;2023-04-03T07:57:05;3.58;;;1.38;;
40537;SDS011;27925;41.874;12.526;2023-04-03T07:59:31;9.50;;;1.45;;
40537;SDS011;27925;41.874;12.526;2023-04-03T08:01:57;3.35;;;1.30;;
40537;SDS011;27925;41.874;12.526;2023-04-03T08:04:23;5.00;;;1.30;;
40537;SDS011;27925;41.874;12.526;2023-04-03T08:06:50;6.57;;;1.40;;
40537;SDS011;27925;41.874;12.526;2023-04-03T08:09:16;3.30;;;1.40;;
40537;SDS011;27925;41.874;12.526;2023-04-03T08:11:42;4.32;;;1.20;;
40537;SDS011;27925;41.874;12.526;2023-04-03T08:14:08;2.97;;;1.20;;
40537;SDS011;27925;41.874;12.526;2023-04-03T08:16:40;4.95;;;1.38;;
40537;SDS011;27925;41.874;12.526;2023-04-03T08:19:06;6.00;;;1.40;;
40537;SDS011;27925;41.874;12.526;2023-04-03T08:21:32;6.05;;;1.77;;
40537;SDS011;27925;41.874;12.526;2023-04-03T08:23:58;4.28;;;1.45;;
40537;SDS011;27925;41.874;12.526;2023-04-03T08:26:24;4.38;;;1.80;;
40537;SDS011;27925;41.874;12.526;2023-04-03T08:28:51;2.53;;;1.27;;
40537;SDS011;27925;41.874;12.526;2023-04-03T08:31:18;4.18;;;1.40;;
40537;SDS011;27925;41.874;12.526;2023-04-03T08:33:45;6.90;;;1.30;;
40537;SDS011;27925;41.874;12.526;2023-04-03T08:36:21;2.83;;;1.23;;
40537;SDS011;27925;41.874;12.526;2023-04-03T08:38:50;4.13;;;1.25;;
40537;SDS011;27925;41.874;12.526;2023-04-03T08:41:23;2.30;;;1.25;;
40537;SDS011;27925;41.874;12.526;2023-04-03T08:52:10;4.20;;;1.55;;
40537;SDS011;27925;41.874;12.526;2023-04-03T08:57:24;2.40;;;1.10;;
40537;SDS011;27925;41.874;12.526;2023-04-03T09:00:07;2.40;;;1.05;;
40537;SDS011;27925;41.874;12.526;2023-04-03T09:02:46;3.28;;;1.10;;
40537;SDS011;27925;41.874;12.526;2023-04-03T09:13:59;2.85;;;1.10;;
40537;SDS011;27925;41.874;12.526;2023-04-03T09:21:53;1.98;;;0.80;;
40537;SDS011;27925;41.874;12.526;2023-04-03T09:24:22;2.42;;;1.00;;
40537;SDS011;27925;41.874;12.526;2023-04-03T09:26:53;5.72;;;0.88;;
40537;SDS011;27925;41.874;12.526;2023-04-03T09:29:24;4.05;;;0.85;;
40537;SDS011;27925;41.874;12.526;2023-04-03T09:31:58;4.70;;;0.95;;
40537;SDS011;27925;41.874;12.526;2023-04-03T09:34:26;1.90;;;0.70;;
40537;SDS011;27925;41.874;12.526;2023-04-03T09:36:57;1.48;;;0.82;;
40537;SDS011;27925;41.874;12.526;2023-04-03T09:39:30;2.13;;;0.80;;
40537;SDS011;27925;41.874;12.526;2023-04-03T09:42:02;2.55;;;0.70;;
40537;SDS011;27925;41.874;12.526;2023-04-03T09:44:41;1.77;;;0.90;;
40537;SDS011;27925;41.874;12.526;2023-04-03T09:52:42;2.25;;;1.15;;
40537;SDS011;27925;41.874;12.526;2023-04-03T09:55:23;4.00;;;1.00;;
40537;SDS011;27925;41.874;12.526;2023-04-03T09:57:54;2.45;;;0.80;;
40537;SDS011;27925;41.874;12.526;2023-04-03T10:00:25;1.58;;;0.85;;
40537;SDS011;27925;41.874;12.526;2023-04-03T10:02:57;2.83;;;0.90;;
40537;SDS011;27925;41.874;12.526;2023-04-03T10:10:39;5.38;;;0.90;;
40537;SDS011;27925;41.874;12.526;2023-04-03T10:13:18;2.03;;;1.00;;
40537;SDS011;27925;41.874;12.526;2023-04-03T10:15:50;3.10;;;1.00;;
40537;SDS011;27925;41.874;12.526;2023-04-03T10:21:08;4.05;;;1.23;;
40537;SDS011;27925;41.874;12.526;2023-04-03T10:26:19;2.53;;;1.10;;
40537;SDS011;27925;41.874;12.526;2023-04-03T10:29:16;3.95;;;0.70;;
40537;SDS011;27925;41.874;12.526;2023-04-03T10:34:44;1.48;;;0.95;;
40537;SDS011;27925;41.874;12.526;2023-04-03T10:37:21;1.17;;;0.70;;
40537;SDS011;27925;41.874;12.526;2023-04-03T10:39:57;1.30;;;0.80;;
40537;SDS011;27925;41.874;12.526;2023-04-03T10:42:46;2.42;;;0.90;;
40537;SDS011;27925;41.874;12.526;2023-04-03T10:45:31;1.42;;;0.63;;
40537;SDS011;27925;41.874;12.526;2023-04-03T10:48:13;4.13;;;0.73;;
40537;SDS011;27925;41.874;12.526;2023-04-03T11:01:38;0.93;;;0.60;;
40537;SDS011;27925;41.874;12.526;2023-04-03T11:04:07;2.30;;;0.75;;
40537;SDS011;27925;41.874;12.526;2023-04-03T11:06:37;3.33;;;1.00;;
40537;SDS011;27925;41.874;12.526;2023-04-03T11:09:15;3.92;;;0.63;;
40537;SDS011;27925;41.874;12.526;2023-04-03T11:11:43;0.70;;;0.63;;
40537;SDS011;27925;41.874;12.526;2023-04-03T11:16:42;1.38;;;0.60;;
40537;SDS011;27925;41.874;12.526;2023-04-03T11:19:16;2.25;;;0.80;;
40537;SDS011;27925;41.874;12.526;2023-04-03T11:21:54;1.13;;;0.75;;
40537;SDS011;27925;41.874;12.526;2023-04-03T11:24:29;1.77;;;0.80;;
40537;SDS011;27925;41.874;12.526;2023-04-03T11:26:59;2.25;;;0.90;;
40537;SDS011;27925;41.874;12.526;2023-04-03T11:29:32;3.42;;;0.63;;
40537;SDS011;27925;41.874;12.526;2023-04-03T11:32:08;1.48;;;0.70;;
40537;SDS011;27925;41.874;12.526;2023-04-03T11:34:45;2.25;;;0.82;;
40537;SDS011;27925;41.874;12.526;2023-04-03T11:37:34;1.95;;;0.70;;
40537;SDS011;27925;41.874;12.526;2023-04-03T11:40:05;3.85;;;0.90;;
40537;SDS011;27925;41.874;12.526;2023-04-03T11:42:38;3.10;;;0.85;;
40537;SDS011;27925;41.874;12.526;2023-04-03T11:47:56;2.33;;;0.90;;
40537;SDS011;27925;41.874;12.526;2023-04-03T11:50:31;4.65;;;1.00;;
40537;SDS011;27925;41.874;12.526;2023-04-03T11:52:58;1.90;;;0.75;;
40537;SDS011;27925;41.874;12.526;2023-04-03T12:14:01;2.60;;;1.08;;
40537;SDS011;27925;41.874;12.526;2023-04-03T12:24:29;3.92;;;1.20;;
40537;SDS011;27925;41.874;12.526;2023-04-03T12:39:51;3.67;;;1.00;;
40537;SDS011;27925;41.874;12.526;2023-04-03T12:45:20;3.13;;;1.00;;
40537;SDS011;27925;41.874;12.526;2023-04-03T12:47:51;2.05;;;0.95;;
40537;SDS011;27925;41.874;12.526;2023-04-03T12:50:28;3.35;;;1.00;;
40537;SDS011;27925;41.874;12.526;2023-04-03T12:53:10;1.73;;;0.85;;
40537;SDS011;27925;41.874;12.526;2023-04-03T12:55:47;6.63;;;1.20;;
40537;SDS011;27925;41.874;12.526;2023-04-03T13:01:01;3.95;;;0.80;;
40537;SDS011;27925;41.874;12.526;2023-04-03T13:03:28;3.65;;;0.80;;
40537;SDS011;27925;41.874;12.526;2023-04-03T13:05:56;2.42;;;0.70;;
40537;SDS011;27925;41.874;12.526;2023-04-03T13:08:25;2.63;;;0.88;;
40537;SDS011;27925;41.874;12.526;2023-04-03T13:13:20;3.47;;;0.80;;
40537;SDS011;27925;41.874;12.526;2023-04-03T13:15:48;1.75;;;0.70;;
40537;SDS011;27925;41.874;12.526;2023-04-03T13:21:17;2.30;;;0.77;;
40537;SDS011;27925;41.874;12.526;2023-04-03T13:23:47;2.55;;;0.88;;
40537;SDS011;27925;41.874;12.526;2023-04-03T13:26:16;3.75;;;0.95;;
40537;SDS011;27925;41.874;12.526;2023-04-03T13:28:44;2.33;;;0.80;;
40537;SDS011;27925;41.874;12.526;2023-04-03T13:34:06;3.72;;;0.90;;
40537;SDS011;27925;41.874;12.526;2023-04-03T13:36:36;2.80;;;1.00;;
40537;SDS011;27925;41.874;12.526;2023-04-03T13:39:30;3.45;;;1.15;;
40537;SDS011;27925;41.874;12.526;2023-04-03T13:42:02;4.28;;;0.90;;
40537;SDS011;27925;41.874;12.526;2023-04-03T13:47:49;1.98;;;0.90;;
40537;SDS011;27925;41.874;12.526;2023-04-03T13:50:18;4.25;;;1.05;;
40537;SDS011;27925;41.874;12.526;2023-04-03T13:55:26;2.60;;;0.90;;
40537;SDS011;27925;41.874;12.526;2023-04-03T14:00:28;1.88;;;0.70;;
40537;SDS011;27925;41.874;12.526;2023-04-03T14:03:01;2.30;;;1.00;;
40537;SDS011;27925;41.874;12.526;2023-04-03T14:05:26;2.30;;;0.90;;
40537;SDS011;27925;41.874;12.526;2023-04-03T14:07:53;3.70;;;1.02;;
40537;SDS011;27925;41.874;12.526;2023-04-03T14:10:20;3.15;;;1.00;;
40537;SDS011;27925;41.874;12.526;2023-04-03T14:12:46;5.75;;;1.20;;
40537;SDS011;27925;41.874;12.526;2023-04-03T14:17:54;2.40;;;1.05;;
40537;SDS011;27925;41.874;12.526;2023-04-03T14:20:23;6.25;;;3.47;;
40537;SDS011;27925;41.874;12.526;2023-04-03T14:22:50;3.65;;;1.50;;
40537;SDS011;27925;41.874;12.526;2023-04-03T14:25:17;3.95;;;1.42;;
40537;SDS011;27925;41.874;12.526;2023-04-03T14:27:45;3.30;;;1.05;;
40537;SDS011;27925;41.874;12.526;2023-04-03T14:30:19;1.70;;;0.90;;
40537;SDS011;27925;41.874;12.526;2023-04-03T14:32:48;3.65;;;1.00;;
40537;SDS011;27925;41.874;12.526;2023-04-03T14:35:15;2.10;;;1.02;;
40537;SDS011;27925;41.874;12.526;2023-04-03T14:37:41;1.65;;;1.08;;
40537;SDS011;27925;41.874;12.526;2023-04-03T14:40:08;4.25;;;1.65;;
40537;SDS011;27925;41.874;12.526;2023-04-03T14:42:37;2.53;;;0.90;;
40537;SDS011;27925;41.874;12.526;2023-04-03T14:45:05;2.53;;;1.02;;
40537;SDS011;27925;41.874;12.526;2023-04-03T14:47:43;4.82;;;0.90;;
40537;SDS011;27925;41.874;12.526;2023-04-03T14:50:15;3.00;;;1.02;;
40537;SDS011;27925;41.874;12.526;2023-04-03T14:52:43;2.70;;;1.08;;
40537;SDS011;27925;41.874;12.526;2023-04-03T14:55:18;2.50;;;1.05;;
40537;SDS011;27925;41.874;12.526;2023-04-03T14:57:45;3.65;;;0.82;;
40537;SDS011;27925;41.874;12.526;2023-04-03T15:00:15;3.17;;;1.30;;
40537;SDS011;27925;41.874;12.526;2023-04-03T15:02:45;5.35;;;1.30;;
40537;SDS011;27925;41.874;12.526;2023-04-03T15:05:12;3.13;;;1.42;;
40537;SDS011;27925;41.874;12.526;2023-04-03T15:07:40;3.60;;;1.25;;
40537;SDS011;27925;41.874;12.526;2023-04-03T15:10:20;4.38;;;1.35;;
40537;SDS011;27925;41.874;12.526;2023-04-03T15:12:48;3.63;;;1.20;;
40537;SDS011;27925;41.874;12.526;2023-04-03T15:15:15;3.13;;;1.20;;
40537;SDS011;27925;41.874;12.526;2023-04-03T15:17:42;5.07;;;1.38;;
40537;SDS011;27925;41.874;12.526;2023-04-03T15:20:12;4.07;;;1.55;;
40537;SDS011;27925;41.874;12.526;2023-04-03T15:22:43;5.70;;;1.27;;
40537;SDS011;27925;41.874;12.526;2023-04-03T15:25:09;3.85;;;1.20;;
40537;SDS011;27925;41.874;12.526;2023-04-03T15:27:35;4.40;;;1.27;;
40537;SDS011;27925;41.874;12.526;2023-04-03T15:30:02;5.88;;;1.63;;
40537;SDS011;27925;41.874;12.526;2023-04-03T15:32:29;4.80;;;1.05;;
40537;SDS011;27925;41.874;12.526;2023-04-03T15:34:56;2.58;;;1.13;;
40537;SDS011;27925;41.874;12.526;2023-04-03T15:37:22;7.22;;;1.40;;
40537;SDS011;27925;41.874;12.526;2023-04-03T15:39:48;3.15;;;1.08;;
40537;SDS011;27925;41.874;12.526;2023-04-03T15:42:14;5.18;;;1.17;;
40537;SDS011;27925;41.874;12.526;2023-04-03T15:44:40;4.47;;;1.10;;
40537;SDS011;27925;41.874;12.526;2023-04-03T15:47:05;4.28;;;1.20;;
40537;SDS011;27925;41.874;12.526;2023-04-03T15:49:32;4.68;;;1.55;;
40537;SDS011;27925;41.874;12.526;2023-04-03T15:51:58;6.72;;;1.52;;
40537;SDS011;27925;41.874;12.526;2023-04-03T15:54:24;3.13;;;1.25;;
40537;SDS011;27925;41.874;12.526;2023-04-03T15:56:50;4.00;;;1.60;;
40537;SDS011;27925;41.874;12.526;2023-04-03T15:59:17;3.60;;;1.27;;
40537;SDS011;27925;41.874;12.526;2023-04-03T16:01:43;5.82;;;1.65;;
40537;SDS011;27925;41.874;12.526;2023-04-03T16:04:09;5.28;;;1.60;;
40537;SDS011;27925;41.874;12.526;2023-04-03T16:06:35;4.15;;;1.40;;
40537;SDS011;27925;41.874;12.526;2023-04-03T16:09:02;5.88;;;1.73;;
40537;SDS011;27925;41.874;12.526;2023-04-03T16:11:28;5.78;;;1.30;;
40537;SDS011;27925;41.874;12.526;2023-04-03T16:13:54;7.45;;;1.70;;
40537;SDS011;27925;41.874;12.526;2023-04-03T16:16:21;6.00;;;1.33;;
40537;SDS011;27925;41.874;12.526;2023-04-03T16:18:48;3.72;;;1.30;;
40537;SDS011;27925;41.874;12.526;2023-04-03T16:21:15;6.72;;;1.55;;
40537;SDS011;27925;41.874;12.526;2023-04-03T16:23:42;5.03;;;1.50;;
40537;SDS011;27925;41.874;12.526;2023-04-03T16:26:08;5.32;;;1.67;;
40537;SDS011;27925;41.874;12.526;2023-04-03T16:28:34;4.55;;;1.55;;
40537;SDS011;27925;41.874;12.526;2023-04-03T16:31:00;5.10;;;1.42;;
40537;SDS011;27925;41.874;12.526;2023-04-03T16:33:26;7.18;;;1.77;;
40537;SDS011;27925;41.874;12.526;2023-04-03T16:35:53;5.90;;;1.98;;
40537;SDS011;27925;41.874;12.526;2023-04-03T16:38:18;5.13;;;1.75;;
40537;SDS011;27925;41.874;12.526;2023-04-03T16:40:45;6.07;;;1.92;;
40537;SDS011;27925;41.874;12.526;2023-04-03T16:43:10;8.00;;;1.80;;
40537;SDS011;27925;41.874;12.526;2023-04-03T16:45:36;8.07;;;1.90;;
40537;SDS011;27925;41.874;12.526;2023-04-03T16:48:02;5.75;;;2.45;;
40537;SDS011;27925;41.874;12.526;2023-04-03T16:50:28;7.72;;;1.95;;
40537;SDS011;27925;41.874;12.526;2023-04-03T16:52:54;5.65;;;1.70;;
40537;SDS011;27925;41.874;12.526;2023-04-03T16:55:20;6.97;;;1.55;;
40537;SDS011;27925;41.874;12.526;2023-04-03T16:57:46;4.22;;;1.60;;
40537;SDS011;27925;41.874;12.526;2023-04-03T17:00:12;9.18;;;2.35;;
40537;SDS011;27925;41.874;12.526;2023-04-03T17:02:38;4.13;;;1.50;;
40537;SDS011;27925;41.874;12.526;2023-04-03T17:05:05;6.70;;;1.45;;
40537;SDS011;27925;41.874;12.526;2023-04-03T17:07:34;5.07;;;1.70;;
40537;SDS011;27925;41.874;12.526;2023-04-03T17:10:00;6.10;;;1.83;;
40537;SDS011;27925;41.874;12.526;2023-04-03T17:12:25;5.65;;;1.65;;
40537;SDS011;27925;41.874;12.526;2023-04-03T17:14:51;6.22;;;1.70;;
40537;SDS011;27925;41.874;12.526;2023-04-03T17:17:21;6.68;;;2.17;;
40537;SDS011;27925;41.874;12.526;2023-04-03T17:19:49;5.28;;;1.92;;
40537;SDS011;27925;41.874;12.526;2023-04-03T17:22:15;5.00;;;1.92;;
40537;SDS011;27925;41.874;12.526;2023-04-03T17:24:42;7.28;;;1.95;;
40537;SDS011;27925;41.874;12.526;2023-04-03T17:27:08;4.63;;;1.80;;
40537;SDS011;27925;41.874;12.526;2023-04-03T17:29:34;5.00;;;1.50;;
40537;SDS011;27925;41.874;12.526;2023-04-03T17:32:00;5.57;;;1.95;;
40537;SDS011;27925;41.874;12.526;2023-04-03T17:34:26;6.20;;;1.48;;
40537;SDS011;27925;41.874;12.526;2023-04-03T17:36:52;4.78;;;1.45;;
40537;SDS011;27925;41.874;12.526;2023-04-03T17:39:18;4.38;;;1.58;;
40537;SDS011;27925;41.874;12.526;2023-04-03T17:41:43;6.10;;;1.50;;
40537;SDS011;27925;41.874;12.526;2023-04-03T17:44:13;4.97;;;1.75;;
40537;SDS011;27925;41.874;12.526;2023-04-03T17:46:39;6.05;;;1.70;;
40537;SDS011;27925;41.874;12.526;2023-04-03T17:49:05;5.85;;;1.77;;
40537;SDS011;27925;41.874;12.526;2023-04-03T17:51:31;4.13;;;1.70;;
40537;SDS011;27925;41.874;12.526;2023-04-03T17:54:00;4.78;;;1.75;;
40537;SDS011;27925;41.874;12.526;2023-04-03T17:56:26;6.47;;;1.90;;
40537;SDS011;27925;41.874;12.526;2023-04-03T17:58:53;5.90;;;1.60;;
40537;SDS011;27925;41.874;12.526;2023-04-03T18:01:24;8.20;;;2.28;;
40537;SDS011;27925;41.874;12.526;2023-04-03T18:04:02;6.53;;;1.98;;
40537;SDS011;27925;41.874;12.526;2023-04-03T18:06:36;6.95;;;2.53;;
40537;SDS011;27925;41.874;12.526;2023-04-03T18:09:15;7.00;;;2.13;;
40537;SDS011;27925;41.874;12.526;2023-04-03T18:11:43;8.77;;;1.80;;
40537;SDS011;27925;41.874;12.526;2023-04-03T18:14:11;7.70;;;1.95;;
40537;SDS011;27925;41.874;12.526;2023-04-03T18:16:39;9.30;;;2.20;;
40537;SDS011;27925;41.874;12.526;2023-04-03T18:19:05;7.70;;;2.15;;
40537;SDS011;27925;41.874;12.526;2023-04-03T18:21:31;9.65;;;2.15;;
40537;SDS011;27925;41.874;12.526;2023-04-03T18:23:57;6.05;;;1.90;;
40537;SDS011;27925;41.874;12.526;2023-04-03T18:26:26;7.95;;;1.80;;
40537;SDS011;27925;41.874;12.526;2023-04-03T18:28:55;5.95;;;1.98;;
40537;SDS011;27925;41.874;12.526;2023-04-03T18:31:23;9.85;;;2.72;;
40537;SDS011;27925;41.874;12.526;2023-04-03T18:33:52;3.30;;;1.55;;
40537;SDS011;27925;41.874;12.526;2023-04-03T18:36:19;4.53;;;1.90;;
40537;SDS011;27925;41.874;12.526;2023-04-03T18:38:45;8.38;;;2.08;;
40537;SDS011;27925;41.874;12.526;2023-04-03T18:41:11;5.47;;;1.80;;
40537;SDS011;27925;41.874;12.526;2023-04-03T18:43:38;6.40;;;2.10;;
40537;SDS011;27925;41.874;12.526;2023-04-03T18:46:04;5.10;;;2.00;;
40537;SDS011;27925;41.874;12.526;2023-04-03T18:48:33;6.97;;;1.83;;
40537;SDS011;27925;41.874;12.526;2023-04-03T18:51:00;4.97;;;1.88;;
40537;SDS011;27925;41.874;12.526;2023-04-03T18:53:26;6.13;;;2.15;;
40537;SDS011;27925;41.874;12.526;2023-04-03T18:55:52;6.75;;;1.73;;